sensor_id;sensor_type;location;lat;lon;timestamp;P1;durP1;ratioP1;P2;durP2;ratioP2
75139;SDS011;63714;55.812;37.658;2022-09-20T18:25:06;7.30;;;3.65;;
75139;SDS011;63714;55.812;37.658;2022-09-20T18:27:32;10.15;;;4.45;;
75139;SDS011;63714;55.812;37.658;2022-09-20T18:29:58;9.05;;;4.50;;
75139;SDS011;63714;55.812;37.658;2022-09-20T18:32:24;9.98;;;6.57;;
75139;SDS011;63714;55.812;37.658;2022-09-20T18:34:53;12.45;;;7.45;;
75139;SDS011;63714;55.812;37.658;2022-09-20T18:37:19;10.38;;;7.32;;
75139;SDS011;63714;55.812;37.658;2022-09-20T18:39:44;17.88;;;10.30;;
75139;SDS011;63714;55.812;37.658;2022-09-20T18:42:10;24.02;;;15.75;;
75139;SDS011;63714;55.812;37.658;2022-09-20T18:44:36;19.40;;;11.48;;
75139;SDS011;63714;55.812;37.658;2022-09-20T18:47:02;37.95;;;23.52;;
75139;SDS011;63714;55.812;37.658;2022-09-20T18:49:29;17.83;;;10.90;;
75139;SDS011;63714;55.812;37.658;2022-09-20T18:51:56;14.80;;;10.15;;
75139;SDS011;63714;55.812;37.658;2022-09-20T18:54:22;9.05;;;5.72;;
75139;SDS011;63714;55.812;37.658;2022-09-20T18:56:48;11.80;;;7.53;;
75139;SDS011;63714;55.812;37.658;2022-09-20T18:59:18;8.45;;;5.90;;
75139;SDS011;63714;55.812;37.658;2022-09-20T19:10:10;8.88;;;4.75;;
75139;SDS011;63714;55.812;37.658;2022-09-20T19:15:37;9.73;;;4.78;;
75139;SDS011;63714;55.812;37.658;2022-09-20T19:21:00;13.55;;;4.95;;
75139;SDS011;63714;55.812;37.658;2022-09-20T19:23:54;9.70;;;4.85;;
75139;SDS011;63714;55.812;37.658;2022-09-20T19:26:50;9.32;;;5.03;;
75139;SDS011;63714;55.812;37.658;2022-09-20T19:29:17;9.02;;;4.53;;
75139;SDS011;63714;55.812;37.658;2022-09-20T19:31:47;9.57;;;4.82;;
75139;SDS011;63714;55.812;37.658;2022-09-20T19:34:16;11.38;;;5.78;;
75139;SDS011;63714;55.812;37.658;2022-09-20T19:50:20;9.00;;;4.43;;
75139;SDS011;63714;55.812;37.658;2022-09-20T19:52:56;9.18;;;4.82;;
75139;SDS011;63714;55.812;37.658;2022-09-20T19:55:22;9.57;;;5.15;;
75139;SDS011;63714;55.812;37.658;2022-09-20T19:57:48;9.75;;;4.88;;
75139;SDS011;63714;55.812;37.658;2022-09-20T20:00:15;10.65;;;5.13;;
75139;SDS011;63714;55.812;37.658;2022-09-20T20:02:43;10.85;;;5.60;;
75139;SDS011;63714;55.812;37.658;2022-09-20T20:05:11;15.13;;;5.32;;
75139;SDS011;63714;55.812;37.658;2022-09-20T20:08:21;8.55;;;4.38;;
75139;SDS011;63714;55.812;37.658;2022-09-20T20:11:08;9.05;;;4.57;;
75139;SDS011;63714;55.812;37.658;2022-09-20T20:27:10;7.53;;;3.95;;
75139;SDS011;63714;55.812;37.658;2022-09-20T20:29:35;6.90;;;4.00;;
75139;SDS011;63714;55.812;37.658;2022-09-20T20:32:01;9.48;;;4.07;;
75139;SDS011;63714;55.812;37.658;2022-09-20T20:34:26;7.53;;;3.83;;
75139;SDS011;63714;55.812;37.658;2022-09-20T20:36:52;8.40;;;4.07;;
75139;SDS011;63714;55.812;37.658;2022-09-20T20:39:25;7.68;;;4.47;;
75139;SDS011;63714;55.812;37.658;2022-09-20T20:41:53;13.13;;;4.68;;
75139;SDS011;63714;55.812;37.658;2022-09-20T20:44:18;17.60;;;5.25;;
75139;SDS011;63714;55.812;37.658;2022-09-20T20:46:48;18.40;;;5.10;;
75139;SDS011;63714;55.812;37.658;2022-09-20T20:49:14;12.18;;;4.43;;
75139;SDS011;63714;55.812;37.658;2022-09-20T20:51:40;9.73;;;4.22;;
75139;SDS011;63714;55.812;37.658;2022-09-20T20:54:06;8.02;;;4.05;;
75139;SDS011;63714;55.812;37.658;2022-09-20T20:56:32;8.00;;;4.00;;
75139;SDS011;63714;55.812;37.658;2022-09-20T20:58:57;9.43;;;5.40;;
75139;SDS011;63714;55.812;37.658;2022-09-20T21:01:27;19.15;;;9.25;;
75139;SDS011;63714;55.812;37.658;2022-09-20T21:03:54;7.25;;;5.05;;
75139;SDS011;63714;55.812;37.658;2022-09-20T21:06:22;7.43;;;4.40;;
75139;SDS011;63714;55.812;37.658;2022-09-20T21:08:51;7.60;;;4.50;;
75139;SDS011;63714;55.812;37.658;2022-09-20T21:11:24;7.30;;;4.15;;
75139;SDS011;63714;55.812;37.658;2022-09-20T21:13:52;9.05;;;4.45;;
75139;SDS011;63714;55.812;37.658;2022-09-20T21:16:20;8.57;;;4.88;;
75139;SDS011;63714;55.812;37.658;2022-09-20T21:18:48;8.07;;;5.18;;
75139;SDS011;63714;55.812;37.658;2022-09-20T21:23:51;9.25;;;5.28;;
75139;SDS011;63714;55.812;37.658;2022-09-20T21:26:18;8.32;;;4.47;;
75139;SDS011;63714;55.812;37.658;2022-09-20T21:28:48;9.48;;;5.05;;
75139;SDS011;63714;55.812;37.658;2022-09-20T21:31:16;7.90;;;4.63;;
75139;SDS011;63714;55.812;37.658;2022-09-20T21:33:42;8.98;;;5.43;;
75139;SDS011;63714;55.812;37.658;2022-09-20T21:36:13;10.05;;;5.47;;
75139;SDS011;63714;55.812;37.658;2022-09-20T21:38:41;11.68;;;5.90;;
75139;SDS011;63714;55.812;37.658;2022-09-20T21:43:42;12.45;;;5.57;;
75139;SDS011;63714;55.812;37.658;2022-09-20T21:46:09;8.15;;;5.03;;
75139;SDS011;63714;55.812;37.658;2022-09-20T21:48:39;7.93;;;4.85;;
75139;SDS011;63714;55.812;37.658;2022-09-20T21:51:05;10.35;;;5.25;;
75139;SDS011;63714;55.812;37.658;2022-09-20T21:53:33;14.70;;;5.78;;
75139;SDS011;63714;55.812;37.658;2022-09-20T21:56:00;10.50;;;5.35;;
75139;SDS011;63714;55.812;37.658;2022-09-20T21:58:27;10.75;;;5.00;;
75139;SDS011;63714;55.812;37.658;2022-09-20T22:03:22;14.15;;;5.88;;
75139;SDS011;63714;55.812;37.658;2022-09-20T22:05:47;12.18;;;5.80;;
75139;SDS011;63714;55.812;37.658;2022-09-20T22:08:13;9.65;;;5.60;;
75139;SDS011;63714;55.812;37.658;2022-09-20T22:10:39;9.57;;;5.25;;
75139;SDS011;63714;55.812;37.658;2022-09-20T22:13:05;9.98;;;5.95;;
75139;SDS011;63714;55.812;37.658;2022-09-20T22:15:30;11.85;;;5.38;;
75139;SDS011;63714;55.812;37.658;2022-09-20T22:17:55;9.65;;;5.10;;
75139;SDS011;63714;55.812;37.658;2022-09-20T22:20:21;10.00;;;5.60;;
75139;SDS011;63714;55.812;37.658;2022-09-20T22:22:47;10.57;;;4.63;;
75139;SDS011;63714;55.812;37.658;2022-09-20T22:25:12;13.20;;;5.50;;
75139;SDS011;63714;55.812;37.658;2022-09-20T22:27:38;8.23;;;5.13;;
75139;SDS011;63714;55.812;37.658;2022-09-20T22:30:03;12.63;;;5.03;;
75139;SDS011;63714;55.812;37.658;2022-09-20T22:32:29;8.90;;;5.30;;
75139;SDS011;63714;55.812;37.658;2022-09-20T22:34:55;10.13;;;5.70;;
75139;SDS011;63714;55.812;37.658;2022-09-20T22:37:22;8.05;;;4.78;;
75139;SDS011;63714;55.812;37.658;2022-09-20T22:39:47;9.55;;;5.22;;
75139;SDS011;63714;55.812;37.658;2022-09-20T22:42:13;9.70;;;4.85;;
75139;SDS011;63714;55.812;37.658;2022-09-20T22:44:38;9.07;;;4.75;;
75139;SDS011;63714;55.812;37.658;2022-09-20T22:47:04;9.38;;;4.72;;
75139;SDS011;63714;55.812;37.658;2022-09-20T22:49:30;7.65;;;4.47;;
75139;SDS011;63714;55.812;37.658;2022-09-20T22:51:55;8.80;;;5.00;;
75139;SDS011;63714;55.812;37.658;2022-09-20T22:54:20;9.13;;;4.75;;
75139;SDS011;63714;55.812;37.658;2022-09-20T22:56:46;7.28;;;4.63;;
75139;SDS011;63714;55.812;37.658;2022-09-20T22:59:12;7.72;;;4.60;;
75139;SDS011;63714;55.812;37.658;2022-09-20T23:01:45;8.60;;;4.47;;
75139;SDS011;63714;55.812;37.658;2022-09-20T23:04:12;7.72;;;4.82;;
75139;SDS011;63714;55.812;37.658;2022-09-20T23:06:46;9.95;;;4.57;;
75139;SDS011;63714;55.812;37.658;2022-09-20T23:09:16;8.18;;;4.65;;
75139;SDS011;63714;55.812;37.658;2022-09-20T23:11:42;7.85;;;4.45;;
75139;SDS011;63714;55.812;37.658;2022-09-20T23:14:10;7.53;;;4.70;;
75139;SDS011;63714;55.812;37.658;2022-09-20T23:16:37;10.20;;;5.47;;
75139;SDS011;63714;55.812;37.658;2022-09-20T23:19:04;9.23;;;5.25;;
75139;SDS011;63714;55.812;37.658;2022-09-20T23:21:30;7.82;;;4.75;;
75139;SDS011;63714;55.812;37.658;2022-09-20T23:23:57;9.07;;;4.53;;
75139;SDS011;63714;55.812;37.658;2022-09-20T23:26:25;8.20;;;4.30;;
75139;SDS011;63714;55.812;37.658;2022-09-20T23:28:56;10.13;;;4.93;;
75139;SDS011;63714;55.812;37.658;2022-09-20T23:31:23;8.20;;;4.70;;
75139;SDS011;63714;55.812;37.658;2022-09-20T23:33:50;8.60;;;4.38;;
75139;SDS011;63714;55.812;37.658;2022-09-20T23:36:18;11.20;;;4.85;;
75139;SDS011;63714;55.812;37.658;2022-09-20T23:38:44;7.10;;;5.18;;
75139;SDS011;63714;55.812;37.658;2022-09-20T23:41:11;12.05;;;4.93;;
75139;SDS011;63714;55.812;37.658;2022-09-20T23:43:38;7.82;;;4.70;;
75139;SDS011;63714;55.812;37.658;2022-09-20T23:46:05;10.73;;;4.63;;
75139;SDS011;63714;55.812;37.658;2022-09-20T23:48:32;10.32;;;5.65;;
75139;SDS011;63714;55.812;37.658;2022-09-20T23:51:00;8.18;;;4.80;;
75139;SDS011;63714;55.812;37.658;2022-09-20T23:53:26;7.53;;;4.55;;
75139;SDS011;63714;55.812;37.658;2022-09-20T23:55:52;8.82;;;5.40;;
75139;SDS011;63714;55.812;37.658;2022-09-20T23:58:17;10.57;;;4.88;;
